Time,TemperatureF,DewpointF,PressureIn,WindDirection,WindDirectionDegrees,WindSpeedMPH,WindSpeedGustMPH,Humidity,HourlyPrecipIn,Conditions,Clouds,dailyrainin,SoftwareType,DateUTC
2013-10-19 00:13:00,36.5,35.0,29.87,WNW,297,0.0,-999.0,95,-99.99,,,0.00,weatherlink.com 1.10,2013-10-19 04:13:00,
2013-10-19 00:28:00,37.4,36.0,29.87,WNW,297,0.0,-999.0,95,-99.99,,,0.00,weatherlink.com 1.10,2013-10-19 04:28:00,
2013-10-19 00:43:00,38.1,37.0,29.87,WNW,297,1.0,-999.0,96,-99.99,,,0.00,weatherlink.com 1.10,2013-10-19 04:43:00,
2013-10-19 00:58:00,38.7,38.0,29.87,WNW,297,0.0,-999.0,96,-99.99,,,0.00,weatherlink.com 1.10,2013-10-19 04:58:00,
2013-10-19 01:13:00,39.1,38.0,29.86,WNW,297,0.0,-999.0,96,-99.99,,,0.00,weatherlink.com 1.10,2013-10-19 05:13:00,
2013-10-19 01:28:00,39.4,38.0,29.86,WNW,297,0.0,-999.0,96,-99.99,,,0.00,weatherlink.com 1.10,2013-10-19 05:28:00,
2013-10-19 01:43:00,39.5,39.0,29.86,WNW,297,0.0,-999.0,96,-99.99,,,0.00,weatherlink.com 1.10,2013-10-19 05:43:00,
2013-10-19 01:58:00,39.5,39.0,29.86,WNW,297,0.0,-999.0,96,-99.99,,,0.00,weatherlink.com 1.10,2013-10-19 05:58:00,
2013-10-19 02:13:00,38.8,38.0,29.86,WNW,297,0.0,-999.0,96,-99.99,,,0.00,weatherlink.com 1.10,2013-10-19 06:13:00,
2013-10-19 02:28:00,38.0,37.0,29.86,WNW,296,0.0,-999.0,96,-99.99,,,0.00,weatherlink.com 1.10,2013-10-19 06:28:00,
2013-10-19 02:43:00,37.7,37.0,29.85,WNW,296,0.0,-999.0,96,-99.99,,,0.00,weatherlink.com 1.10,2013-10-19 06:43:00,
2013-10-19 02:58:00,37.8,37.0,29.85,WNW,296,0.0,-999.0,96,-99.99,,,0.00,weatherlink.com 1.10,2013-10-19 06:58:00,
2013-10-19 03:13:00,37.9,37.0,29.84,WNW,296,0.0,-999.0,96,-99.99,,,0.00,weatherlink.com 1.10,2013-10-19 07:13:00,
2013-10-19 03:28:00,38.5,38.0,29.84,WNW,297,0.0,-999.0,96,-99.99,,,0.00,weatherlink.com 1.10,2013-10-19 07:28:00,
2013-10-19 03:43:00,39.1,38.0,29.84,WNW,297,0.0,-999.0,96,-99.99,,,0.00,weatherlink.com 1.10,2013-10-19 07:43:00,
2013-10-19 03:58:00,38.9,38.0,29.84,WNW,296,0.0,-999.0,96,-99.99,,,0.00,weatherlink.com 1.10,2013-10-19 07:58:00,
2013-10-19 04:13:00,38.9,38.0,29.83,WNW,297,0.0,-999.0,96,-99.99,,,0.00,weatherlink.com 1.10,2013-10-19 08:13:00,
2013-10-19 04:28:00,38.6,38.0,29.83,WNW,297,0.0,-999.0,96,-99.99,,,0.00,weatherlink.com 1.10,2013-10-19 08:28:00,
2013-10-19 04:43:00,38.8,38.0,29.83,WNW,297,0.0,-999.0,96,-99.99,,,0.00,weatherlink.com 1.10,2013-10-19 08:43:00,
2013-10-19 04:58:00,39.2,38.0,29.83,WNW,297,0.0,-999.0,96,-99.99,,,0.00,weatherlink.com 1.10,2013-10-19 08:58:00,
2013-10-19 05:13:00,39.6,39.0,29.83,WNW,296,0.0,-999.0,96,-99.99,,,0.00,weatherlink.com 1.10,2013-10-19 09:13:00,
2013-10-19 05:28:00,39.7,39.0,29.83,WNW,296,0.0,-999.0,96,-99.99,,,0.00,weatherlink.com 1.10,2013-10-19 09:28:00,
2013-10-19 05:43:00,40.0,39.0,29.82,WNW,296,0.0,-999.0,96,-99.99,,,0.01,weatherlink.com 1.10,2013-10-19 09:43:00,
2013-10-19 05:58:00,40.3,39.0,29.82,WNW,296,0.0,-999.0,96,-99.99,,,0.01,weatherlink.com 1.10,2013-10-19 09:58:00,
2013-10-19 06:13:00,40.5,40.0,29.82,WNW,296,0.0,-999.0,97,-99.99,,,0.02,weatherlink.com 1.10,2013-10-19 10:13:00,
2013-10-19 06:28:00,40.6,40.0,29.82,WNW,297,0.0,-999.0,97,-99.99,,,0.02,weatherlink.com 1.10,2013-10-19 10:28:00,
2013-10-19 06:43:00,40.8,40.0,29.82,WNW,297,0.0,-999.0,96,-99.99,,,0.02,weatherlink.com 1.10,2013-10-19 10:43:00,
2013-10-19 06:58:00,40.8,40.0,29.81,WNW,296,0.0,-999.0,96,-99.99,,,0.02,weatherlink.com 1.10,2013-10-19 10:58:00,
2013-10-19 07:13:00,40.8,40.0,29.81,WNW,297,0.0,-999.0,96,-99.99,,,0.02,weatherlink.com 1.10,2013-10-19 11:13:00,
2013-10-19 07:28:00,40.8,40.0,29.80,WNW,297,0.0,-999.0,96,-99.99,,,0.02,weatherlink.com 1.10,2013-10-19 11:28:00,
2013-10-19 07:43:00,41.1,40.0,29.80,WNW,297,0.0,-999.0,97,-99.99,,,0.02,weatherlink.com 1.10,2013-10-19 11:43:00,
2013-10-19 07:58:00,41.3,41.0,29.80,WNW,297,0.0,-999.0,97,-99.99,,,0.02,weatherlink.com 1.10,2013-10-19 11:58:00,
2013-10-19 08:28:00,41.5,41.0,29.80,WNW,297,0.0,-999.0,97,-99.99,,,0.02,weatherlink.com 1.10,2013-10-19 12:28:00,
2013-10-19 08:43:00,41.9,41.0,29.80,WNW,297,0.0,-999.0,97,-99.99,,,0.02,weatherlink.com 1.10,2013-10-19 12:43:00,
2013-10-19 08:58:00,42.1,41.0,29.80,WNW,297,0.0,-999.0,97,-99.99,,,0.02,weatherlink.com 1.10,2013-10-19 12:58:00,
2013-10-19 09:14:00,42.2,41.0,29.80,WNW,296,0.0,-999.0,97,-99.99,,,0.02,weatherlink.com 1.10,2013-10-19 13:14:00,
2013-10-19 09:29:00,42.6,42.0,29.81,WNW,296,1.0,-999.0,97,-99.99,,,0.02,weatherlink.com 1.10,2013-10-19 13:29:00,
2013-10-19 09:44:00,42.9,42.0,29.81,WNW,296,0.0,-999.0,97,-99.99,,,0.02,weatherlink.com 1.10,2013-10-19 13:44:00,
2013-10-19 09:59:00,43.4,43.0,29.81,WNW,296,0.0,-999.0,97,-99.99,,,0.02,weatherlink.com 1.10,2013-10-19 13:59:00,
2013-10-19 10:14:00,43.9,43.0,29.81,NNW,334,2.0,-999.0,97,-99.99,,,0.02,weatherlink.com 1.10,2013-10-19 14:14:00,
2013-10-19 10:29:00,45.0,44.0,29.80,North,355,1.0,-999.0,97,-99.99,,,0.02,weatherlink.com 1.10,2013-10-19 14:29:00,
2013-10-19 10:44:00,45.3,45.0,29.80,NW,306,6.0,-999.0,97,-99.99,,,0.02,weatherlink.com 1.10,2013-10-19 14:44:00,
2013-10-19 10:59:00,45.8,45.0,29.79,North,350,2.0,-999.0,96,-99.99,,,0.02,weatherlink.com 1.10,2013-10-19 14:59:00,
2013-10-19 11:14:00,46.0,44.0,29.80,WNW,294,5.0,-999.0,93,-99.99,,,0.02,weatherlink.com 1.10,2013-10-19 15:14:00,
2013-10-19 11:29:00,46.3,43.0,29.79,NW,316,3.0,-999.0,89,-99.99,,,0.02,weatherlink.com 1.10,2013-10-19 15:29:00,
2013-10-19 11:44:00,47.7,43.0,29.79,NNW,328,4.0,-999.0,85,-99.99,,,0.02,weatherlink.com 1.10,2013-10-19 15:44:00,
2013-10-19 11:59:00,48.1,42.0,29.78,NNW,332,8.0,-999.0,80,-99.99,,,0.02,weatherlink.com 1.10,2013-10-19 15:59:00,
2013-10-19 12:14:00,47.4,42.0,29.78,WNW,293,6.0,-999.0,81,-99.99,,,0.02,weatherlink.com 1.10,2013-10-19 16:14:00,
2013-10-19 12:29:00,47.3,41.0,29.78,NW,311,3.0,-999.0,79,-99.99,,,0.02,weatherlink.com 1.10,2013-10-19 16:29:00,
2013-10-19 12:44:00,47.9,40.0,29.77,WNW,286,6.0,-999.0,74,-99.99,,,0.02,weatherlink.com 1.10,2013-10-19 16:44:00,
2013-10-19 12:59:00,48.1,41.0,29.77,NNW,340,6.0,-999.0,76,-99.99,,,0.02,weatherlink.com 1.10,2013-10-19 16:59:00,
2013-10-19 13:14:00,48.7,42.0,29.77,West,259,5.0,-999.0,77,-99.99,,,0.02,weatherlink.com 1.10,2013-10-19 17:14:00,
2013-10-19 13:29:00,48.7,42.0,29.76,NW,319,3.0,-999.0,78,-99.99,,,0.02,weatherlink.com 1.10,2013-10-19 17:29:00,
2013-10-19 13:44:00,48.8,40.0,29.76,North,355,5.0,-999.0,72,-99.99,,,0.02,weatherlink.com 1.10,2013-10-19 17:44:00,
2013-10-19 13:59:00,49.6,40.0,29.75,WNW,301,11.0,-999.0,70,-99.99,,,0.02,weatherlink.com 1.10,2013-10-19 17:59:00,
2013-10-19 14:14:00,49.9,40.0,29.75,NW,325,5.0,-999.0,68,-99.99,,,0.02,weatherlink.com 1.10,2013-10-19 18:14:00,
2013-10-19 14:29:00,50.4,39.0,29.74,NW,313,2.0,-999.0,65,-99.99,,,0.02,weatherlink.com 1.10,2013-10-19 18:29:00,
2013-10-19 14:44:00,48.9,39.0,29.74,WNW,289,4.0,-999.0,69,-99.99,,,0.02,weatherlink.com 1.10,2013-10-19 18:44:00,
2013-10-19 14:59:00,50.6,38.0,29.73,NNW,341,7.0,-999.0,62,-99.99,,,0.02,weatherlink.com 1.10,2013-10-19 18:59:00,
2013-10-19 15:14:00,50.5,37.0,29.73,NNW,342,12.0,-999.0,61,-99.99,,,0.02,weatherlink.com 1.10,2013-10-19 19:14:00,
2013-10-19 15:29:00,50.9,37.0,29.73,WNW,293,4.0,-999.0,60,-99.99,,,0.02,weatherlink.com 1.10,2013-10-19 19:29:00,
2013-10-19 15:44:00,49.9,36.0,29.73,WNW,288,12.0,-999.0,59,-99.99,,,0.02,weatherlink.com 1.10,2013-10-19 19:44:00,
2013-10-19 15:59:00,48.9,36.0,29.74,WNW,291,11.0,-999.0,62,-99.99,,,0.02,weatherlink.com 1.10,2013-10-19 19:59:00,
2013-10-19 16:14:00,49.8,35.0,29.73,WNW,292,6.0,-999.0,57,-99.99,,,0.02,weatherlink.com 1.10,2013-10-19 20:14:00,
2013-10-19 16:29:00,49.9,34.0,29.74,WNW,298,6.0,-999.0,55,-99.99,,,0.02,weatherlink.com 1.10,2013-10-19 20:29:00,
2013-10-19 16:44:00,49.6,32.0,29.74,NW,307,5.0,-999.0,52,-99.99,,,0.02,weatherlink.com 1.10,2013-10-19 20:44:00,
2013-10-19 17:00:00,49.2,33.0,29.74,WNW,286,10.0,-999.0,54,-99.99,,,0.02,weatherlink.com 1.10,2013-10-19 21:00:00,
2013-10-19 17:14:00,48.7,34.0,29.74,NW,312,5.0,-999.0,58,-99.99,,,0.02,weatherlink.com 1.10,2013-10-19 21:14:00,
2013-10-19 17:30:00,48.2,35.0,29.74,NW,309,5.0,-999.0,60,-99.99,,,0.02,weatherlink.com 1.10,2013-10-19 21:30:00,
2013-10-19 17:45:00,47.0,34.0,29.75,NW,321,3.0,-999.0,62,-99.99,,,0.02,weatherlink.com 1.10,2013-10-19 21:45:00,
2013-10-19 18:00:00,46.2,34.0,29.75,WNW,300,12.0,-999.0,63,-99.99,,,0.02,weatherlink.com 1.10,2013-10-19 22:00:00,
2013-10-19 18:15:00,45.5,34.0,29.75,WNW,302,5.0,-999.0,64,-99.99,,,0.02,weatherlink.com 1.10,2013-10-19 22:15:00,
2013-10-19 18:30:00,44.7,34.0,29.75,NW,309,1.0,-999.0,67,-99.99,,,0.02,weatherlink.com 1.10,2013-10-19 22:30:00,
2013-10-19 18:45:00,43.9,34.0,29.76,NW,320,2.0,-999.0,69,-99.99,,,0.02,weatherlink.com 1.10,2013-10-19 22:45:00,
2013-10-19 19:00:00,42.2,34.0,29.77,NNW,342,0.0,-999.0,73,-99.99,,,0.02,weatherlink.com 1.10,2013-10-19 23:00:00,
2013-10-19 19:15:00,40.9,34.0,29.77,NNW,342,0.0,-999.0,76,-99.99,,,0.02,weatherlink.com 1.10,2013-10-19 23:15:00,
2013-10-19 19:30:00,38.9,33.0,29.78,NNW,342,0.0,-999.0,80,-99.99,,,0.02,weatherlink.com 1.10,2013-10-19 23:30:00,
2013-10-19 19:45:00,37.7,33.0,29.78,NNW,342,0.0,-999.0,84,-99.99,,,0.02,weatherlink.com 1.10,2013-10-19 23:45:00,
2013-10-19 20:00:00,37.0,33.0,29.78,NNW,341,0.0,-999.0,86,-99.99,,,0.02,weatherlink.com 1.10,2013-10-20 00:00:00,
2013-10-19 20:15:00,36.2,33.0,29.78,NNW,341,0.0,-999.0,87,-99.99,,,0.02,weatherlink.com 1.10,2013-10-20 00:15:00,
2013-10-19 20:30:00,35.3,32.0,29.79,NNW,342,0.0,-999.0,88,-99.99,,,0.02,weatherlink.com 1.10,2013-10-20 00:30:00,
2013-10-19 20:45:00,34.7,32.0,29.79,NNW,342,0.0,-999.0,89,-99.99,,,0.02,weatherlink.com 1.10,2013-10-20 00:45:00,
2013-10-19 21:00:00,34.2,32.0,29.79,NNW,341,2.0,-999.0,90,-99.99,,,0.02,weatherlink.com 1.10,2013-10-20 01:00:00,
2013-10-19 21:15:00,33.7,31.0,29.80,NNW,342,0.0,-999.0,90,-99.99,,,0.02,weatherlink.com 1.10,2013-10-20 01:15:00,
2013-10-19 21:30:00,33.4,31.0,29.80,West,261,0.0,-999.0,91,-99.99,,,0.02,weatherlink.com 1.10,2013-10-20 01:30:00,
2013-10-19 21:45:00,32.4,30.0,29.80,West,262,0.0,-999.0,91,-99.99,,,0.02,weatherlink.com 1.10,2013-10-20 01:45:00,
2013-10-19 22:00:00,32.5,31.0,29.80,West,262,0.0,-999.0,92,-99.99,,,0.02,weatherlink.com 1.10,2013-10-20 02:00:00,
2013-10-19 22:15:00,32.6,31.0,29.80,West,262,1.0,-999.0,92,-99.99,,,0.02,weatherlink.com 1.10,2013-10-20 02:15:00,
2013-10-19 22:30:00,32.1,30.0,29.80,West,262,0.0,-999.0,92,-99.99,,,0.02,weatherlink.com 1.10,2013-10-20 02:30:00,
2013-10-19 22:45:00,31.9,30.0,29.80,West,262,2.0,-999.0,93,-99.99,,,0.02,weatherlink.com 1.10,2013-10-20 02:45:00,
2013-10-19 23:00:00,31.6,30.0,29.81,West,262,0.0,-999.0,93,-99.99,,,0.02,weatherlink.com 1.10,2013-10-20 03:00:00,
2013-10-19 23:15:00,31.0,29.0,29.81,West,262,0.0,-999.0,93,-99.99,,,0.02,weatherlink.com 1.10,2013-10-20 03:15:00,
2013-10-19 23:30:00,30.9,29.0,29.81,West,262,0.0,-999.0,93,-99.99,,,0.02,weatherlink.com 1.10,2013-10-20 03:30:00,
2013-10-19 23:45:00,30.8,29.0,29.81,West,262,0.0,-999.0,93,-99.99,,,0.02,weatherlink.com 1.10,2013-10-20 03:45:00,